CAN041 RODN-RJKI
Flight info
| Callsign | CAN041 |
|---|---|
| Flight time | N/A |
| Altitude | 5000 |
| Route | DCT OKUMA A582 ONC V71 DONAN DCT |
| Aircraft | BE58/L-SDFGRY/C |
Departure
| Time | 2026-04-19 00:12 |
|---|---|
| Airport | Kadena Air Base (RODN) |
Arrival
| Time | N/A |
|---|---|
| Airport | Kikai Airport (RJKI) |
| Time | Latitude | Longitude | Altitude | Speed | Heading |
|---|---|---|---|---|---|
| 2026-04-19 00:03 | 26.35282 | 127.75480 | 135 ft | 0 kts | 321° |
| 2026-04-19 00:09 | 26.35292 | 127.75501 | 135 ft | 13 kts | 118° |
| 2026-04-19 00:09 | 26.35254 | 127.75629 | 137 ft | 25 kts | 52° |
| 2026-04-19 00:10 | 26.35399 | 127.75826 | 133 ft | 38 kts | 50° |
| 2026-04-19 00:10 | 26.35579 | 127.76064 | 129 ft | 41 kts | 50° |
| 2026-04-19 00:10 | 26.35761 | 127.76317 | 126 ft | 36 kts | 50° |
| 2026-04-19 00:10 | 26.35870 | 127.76489 | 123 ft | 24 kts | 98° |
| 2026-04-19 00:11 | 26.35746 | 127.76618 | 124 ft | 22 kts | 163° |
| 2026-04-19 00:11 | 26.35504 | 127.76357 | 128 ft | 92 kts | 231° |
| 2026-04-19 00:11 | 26.34988 | 127.75646 | 288 ft | 133 kts | 232° |
| 2026-04-19 00:11 | 26.34502 | 127.74771 | 718 ft | 141 kts | 264° |
| 2026-04-19 00:12 | 26.34899 | 127.73840 | 1185 ft | 141 kts | 326° |
| 2026-04-19 00:12 | 26.35864 | 127.73788 | 1692 ft | 147 kts | 20° |
| 2026-04-19 00:12 | 26.36601 | 127.74537 | 2119 ft | 150 kts | 59° |
| 2026-04-19 00:12 | 26.36946 | 127.75697 | 2361 ft | 163 kts | 76° |
| 2026-04-19 00:13 | 26.37283 | 127.76920 | 2626 ft | 167 kts | 64° |
| 2026-04-19 00:13 | 26.37872 | 127.78054 | 2932 ft | 173 kts | 51° |
| 2026-04-19 00:13 | 26.38662 | 127.79080 | 3308 ft | 176 kts | 43° |
| 2026-04-19 00:13 | 26.39584 | 127.80035 | 3705 ft | 182 kts | 37° |
| 2026-04-19 00:14 | 26.40580 | 127.80943 | 4162 ft | 187 kts | 35° |
| 2026-04-19 00:14 | 26.41613 | 127.81851 | 4655 ft | 191 kts | 34° |
| 2026-04-19 00:14 | 26.42662 | 127.82763 | 5008 ft | 199 kts | 34° |
| 2026-04-19 00:14 | 26.43801 | 127.83746 | 5118 ft | 209 kts | 34° |
| 2026-04-19 00:15 | 26.44975 | 127.84759 | 5145 ft | 218 kts | 33° |
| 2026-04-19 00:15 | 26.45780 | 127.85442 | 5179 ft | 219 kts | 33° |
| 2026-04-19 00:15 | 26.46983 | 127.86490 | 5238 ft | 220 kts | 34° |
| 2026-04-19 00:15 | 26.48197 | 127.87530 | 5257 ft | 222 kts | 34° |
| 2026-04-19 00:16 | 26.49447 | 127.88589 | 5269 ft | 228 kts | 33° |
| 2026-04-19 00:16 | 26.50698 | 127.89658 | 5161 ft | 225 kts | 34° |
| 2026-04-19 00:16 | 26.51942 | 127.90726 | 5021 ft | 226 kts | 34° |
| 2026-04-19 00:16 | 26.53142 | 127.91773 | 5013 ft | 210 kts | 34° |
| 2026-04-19 00:17 | 26.54256 | 127.92745 | 4990 ft | 196 kts | 34° |
| 2026-04-19 00:17 | 26.55319 | 127.93657 | 4949 ft | 190 kts | 33° |
| 2026-04-19 00:17 | 26.56368 | 127.94556 | 4938 ft | 189 kts | 33° |
| 2026-04-19 00:17 | 26.57407 | 127.95449 | 4936 ft | 188 kts | 33° |
| 2026-04-19 00:18 | 26.58441 | 127.96339 | 4940 ft | 189 kts | 33° |
| 2026-04-19 00:18 | 26.59478 | 127.97231 | 4944 ft | 187 kts | 33° |
| 2026-04-19 00:18 | 26.60513 | 127.98115 | 4944 ft | 187 kts | 33° |
| 2026-04-19 00:18 | 26.61548 | 127.99001 | 4942 ft | 187 kts | 33° |